createdAt,value
2018-05-25T00:02:59.847Z,32.39
2018-05-25T00:08:54.876Z,29.52
2018-05-25T00:14:49.875Z,29.64
2018-05-25T00:20:44.891Z,30.69
2018-05-25T00:26:39.860Z,33.03
2018-05-25T00:32:34.926Z,36.98
2018-05-25T00:38:29.917Z,33.6
2018-05-25T00:44:24.886Z,25.84
2018-05-25T00:50:19.887Z,27.28
2018-05-25T00:56:14.918Z,26.14
2018-05-25T01:02:09.936Z,30.92
2018-05-25T01:08:04.917Z,31.41
2018-05-25T01:13:59.877Z,29.15
2018-05-25T01:19:54.909Z,33.54
2018-05-25T01:25:49.991Z,42.33
2018-05-25T01:31:44.886Z,37.24
2018-05-25T01:37:39.932Z,40.27
2018-05-25T01:43:34.932Z,42.16
2018-05-25T01:49:29.910Z,40.76
2018-05-25T01:55:24.914Z,46.64
2018-05-25T02:01:19.983Z,43.99
2018-05-25T02:07:14.923Z,45.77
2018-05-25T02:13:09.904Z,44.68
2018-05-25T02:19:04.954Z,46.55
2018-05-25T02:24:59.965Z,39.68
2018-05-25T02:30:54.945Z,41.09
2018-05-25T02:36:50.069Z,44.47
2018-05-25T02:42:44.974Z,42.68
2018-05-25T02:48:39.944Z,42.55
2018-05-25T02:54:34.960Z,42.11
2018-05-25T03:00:30.011Z,38.85
2018-05-25T03:06:24.990Z,34.45
2018-05-25T03:12:19.959Z,36.44
2018-05-25T03:18:14.998Z,38.97
2018-05-25T03:24:10.004Z,37.18
2018-05-25T03:30:05.056Z,40.35
2018-05-25T03:35:59.996Z,42.4
2018-05-25T03:41:55.015Z,42.45
2018-05-25T03:47:50.008Z,34.3
2018-05-25T03:53:45.045Z,34.47
2018-05-25T03:59:40.015Z,36.34
2018-05-25T04:05:35.025Z,40.3
2018-05-25T04:11:30.037Z,35.27
2018-05-25T04:17:25.088Z,43.55
2018-05-25T04:23:20.027Z,37.38
2018-05-25T04:29:15.073Z,35.6
2018-05-25T04:35:10.007Z,31.79
2018-05-25T04:41:05.008Z,33.6
2018-05-25T04:47:00.029Z,29.87
2018-05-25T04:52:55.065Z,32.18
2018-05-25T04:58:50.077Z,34.64
2018-05-25T05:04:45.056Z,37.9
2018-05-25T05:10:40.023Z,37.38
2018-05-25T05:16:35.070Z,40.14
2018-05-25T05:22:30.055Z,37.69
2018-05-25T05:28:25.044Z,33.42
2018-05-25T05:34:20.083Z,30.68
2018-05-25T05:40:15.057Z,37.52
2018-05-25T05:46:10.084Z,36.07
2018-05-25T05:52:05.089Z,38.35
2018-05-25T05:58:00.113Z,36.28
2018-05-25T06:03:55.144Z,34.61
2018-05-25T06:09:50.153Z,39.2
2018-05-25T06:15:45.117Z,41.07
2018-05-25T06:21:40.091Z,39.07
2018-05-25T06:27:35.080Z,38.58
2018-05-25T06:33:30.108Z,34
2018-05-25T06:39:25.145Z,36.2
2018-05-25T06:45:20.115Z,37.34
2018-05-25T06:51:15.135Z,34.97
2018-05-25T06:57:10.138Z,35.93
2018-05-25T07:03:05.095Z,34.99
2018-05-25T07:09:00.186Z,35.1
2018-05-25T07:14:55.141Z,38.01
2018-05-25T07:20:50.138Z,33.8
2018-05-25T07:26:45.169Z,32.55
2018-05-25T07:32:40.165Z,34.33
2018-05-25T07:38:35.194Z,33.35
2018-05-25T07:44:30.164Z,27.91
2018-05-25T07:50:25.141Z,31.96
2018-05-25T07:56:20.196Z,32.53
2018-05-25T08:02:15.243Z,29.81
2018-05-25T08:08:10.189Z,31.84
2018-05-25T08:14:05.269Z,30.93
2018-05-25T08:20:00.153Z,32.68
2018-05-25T08:25:55.198Z,33.99
2018-05-25T08:31:50.189Z,31.2
2018-05-25T08:37:45.231Z,34.1
2018-05-25T08:43:40.176Z,31.74
2018-05-25T08:49:35.196Z,32.8
2018-05-25T08:55:30.279Z,29.3
2018-05-25T09:01:25.243Z,30.11
2018-05-25T09:07:20.217Z,29.62
2018-05-25T09:13:15.249Z,35.98
2018-05-25T09:19:10.242Z,28.31
2018-05-25T09:25:05.257Z,31.25
2018-05-25T09:31:00.255Z,32.83
2018-05-25T09:36:55.246Z,34.58
2018-05-25T09:42:50.274Z,32.02
2018-05-25T09:48:45.277Z,35.42
2018-05-25T09:54:40.301Z,34.83
2018-05-25T10:00:35.274Z,31.23
2018-05-25T10:06:30.278Z,31.3
2018-05-25T10:12:25.307Z,30.11
2018-05-25T10:18:20.281Z,30.56
2018-05-25T10:24:15.254Z,29.79
2018-05-25T10:30:10.405Z,30.13
2018-05-25T10:36:05.296Z,25.26
2018-05-25T10:42:00.274Z,26.56
2018-05-25T10:47:55.293Z,29.46
2018-05-25T10:53:50.306Z,26.27
2018-05-25T10:59:45.333Z,30.75
2018-05-25T11:05:40.343Z,30.04
2018-05-25T11:11:35.332Z,29.32
2018-05-25T11:17:30.303Z,27.06
2018-05-25T11:23:25.310Z,34.53
2018-05-25T11:29:20.360Z,27.5
2018-05-25T11:35:15.331Z,25.38
2018-05-25T11:41:10.345Z,30.81
2018-05-25T11:47:05.359Z,24.42
2018-05-25T11:53:00.456Z,25.14
2018-05-25T11:58:55.362Z,22.17
2018-05-25T12:04:50.348Z,22.35
2018-05-25T12:10:45.379Z,22.56
2018-05-25T12:16:40.356Z,22.63
2018-05-25T12:22:35.362Z,19.73
2018-05-25T12:28:30.385Z,22.07
2018-05-25T12:34:25.362Z,18.68
2018-05-25T12:40:20.385Z,21.13
2018-05-25T12:46:15.429Z,21.81
2018-05-25T12:52:10.392Z,18.88
2018-05-25T12:58:05.432Z,17.85
2018-05-25T13:04:00.447Z,16.57
2018-05-25T13:09:55.387Z,18.02
2018-05-25T13:15:50.404Z,14.43
2018-05-25T13:21:45.429Z,15.93
2018-05-25T13:27:40.464Z,15.55
2018-05-25T13:33:35.432Z,16.07
2018-05-25T13:39:30.451Z,12.32
2018-05-25T13:45:25.457Z,12.32
2018-05-25T13:51:20.481Z,14.8
2018-05-25T13:57:15.463Z,14.69
2018-05-25T14:03:10.454Z,14.3
2018-05-25T14:09:06.319Z,13.63
2018-05-25T14:15:00.472Z,12.7
2018-05-25T14:20:55.492Z,11.17
2018-05-25T14:26:50.473Z,16.78
2018-05-25T14:32:45.536Z,12.2
2018-05-25T14:38:40.529Z,11.81
2018-05-25T14:44:35.480Z,11.6
2018-05-25T14:50:30.498Z,11.59
2018-05-25T14:56:25.522Z,9.06
2018-05-25T15:02:20.513Z,10.53
2018-05-25T15:08:15.516Z,11.2
2018-05-25T15:14:10.492Z,14.25
2018-05-25T15:20:05.529Z,9.7
2018-05-25T15:26:00.545Z,8.12
2018-05-25T15:31:55.506Z,12.95
2018-05-25T15:37:50.513Z,11.28
2018-05-25T15:43:45.551Z,13.22
2018-05-25T15:49:40.568Z,14.74
2018-05-25T15:55:35.541Z,15.6
2018-05-25T16:01:30.527Z,13.73
2018-05-25T16:07:25.520Z,12.53
2018-05-25T16:13:20.556Z,13.8
2018-05-25T16:19:15.577Z,13.53
2018-05-25T16:25:10.853Z,11.44
2018-05-25T16:31:05.581Z,15.37
2018-05-25T16:37:00.607Z,11.28
2018-05-25T16:42:55.589Z,11.23
2018-05-25T16:48:50.593Z,11.49
2018-05-25T16:54:45.627Z,10.49
2018-05-25T17:00:40.626Z,11
2018-05-25T17:06:35.615Z,11.54
2018-05-25T17:12:30.606Z,10.15
2018-05-25T17:18:25.578Z,12.08
2018-05-25T17:24:20.618Z,13.38
2018-05-25T17:30:15.657Z,8.6
2018-05-25T17:36:10.670Z,9.25
2018-05-25T17:42:05.706Z,13.94
2018-05-25T17:48:00.662Z,13.69
2018-05-25T17:53:55.651Z,11
2018-05-25T17:59:50.637Z,12.14
2018-05-25T18:05:45.662Z,13.07
2018-05-25T18:11:40.677Z,13.33
2018-05-25T18:17:35.696Z,11.51
2018-05-25T18:23:30.670Z,17.62
2018-05-25T18:29:25.691Z,57.27
2018-05-25T18:35:20.665Z,21.78
2018-05-25T18:41:15.691Z,12.66
2018-05-25T18:47:10.712Z,14.57
2018-05-25T18:53:05.690Z,16.37
2018-05-25T18:59:00.676Z,14.74
2018-05-25T19:04:55.760Z,22.18
2018-05-25T19:10:50.676Z,19.69
2018-05-25T19:16:45.684Z,16.95
2018-05-25T19:22:40.704Z,22.24
2018-05-25T19:28:35.735Z,16.44
2018-05-25T19:34:30.673Z,17.62
2018-05-25T19:40:25.698Z,18.51
2018-05-25T19:46:20.745Z,22.46
2018-05-25T19:52:15.757Z,17.74
2018-05-25T19:58:10.738Z,20.75
2018-05-25T20:04:05.724Z,17.7
2018-05-25T20:10:00.749Z,14.25
2018-05-25T20:15:55.713Z,16.89
2018-05-25T20:21:50.746Z,17.87
2018-05-25T20:27:45.733Z,16.83
2018-05-25T20:33:40.746Z,17.54
2018-05-25T20:39:35.803Z,17.1
2018-05-25T20:45:30.775Z,15.83
2018-05-25T20:51:25.716Z,15.63
2018-05-25T20:57:20.740Z,17.43
2018-05-25T21:03:15.750Z,18.05
2018-05-25T21:09:10.774Z,18.27
2018-05-25T21:15:05.782Z,17.17
2018-05-25T21:21:00.789Z,17.74
2018-05-25T21:26:55.762Z,19.98
2018-05-25T21:32:50.780Z,17.85
2018-05-25T21:38:45.781Z,16.15
2018-05-25T21:44:40.838Z,18.05
2018-05-25T21:50:35.826Z,21.14
2018-05-25T21:56:30.778Z,16.43
2018-05-25T22:02:25.776Z,17.15
2018-05-25T22:08:20.804Z,23.3
2018-05-25T22:14:15.815Z,20.02
2018-05-25T22:20:10.805Z,19.83
2018-05-25T22:26:05.807Z,18.56
2018-05-25T22:32:00.826Z,18.22
2018-05-25T22:37:55.792Z,18.17
2018-05-25T22:43:50.826Z,23.16
2018-05-25T22:49:45.826Z,20.62
2018-05-25T22:55:40.855Z,20.26
2018-05-25T23:01:35.850Z,18.19
2018-05-25T23:07:30.841Z,19.68
2018-05-25T23:13:25.854Z,19.79
2018-05-25T23:19:20.920Z,20.68
2018-05-25T23:25:15.896Z,22.18
2018-05-25T23:31:10.871Z,21.07
2018-05-25T23:37:05.880Z,21.87
2018-05-25T23:43:00.909Z,21.35
2018-05-25T23:48:55.834Z,24.81
2018-05-25T23:54:50.858Z,22.3
